createdAt,value
2022-12-25T00:00:42.092Z,9.90
2022-12-25T00:03:09.785Z,9.90
2022-12-25T00:05:39.097Z,9.90
2022-12-25T00:08:06.850Z,9.90
2022-12-25T00:10:35.006Z,9.90
2022-12-25T00:13:04.221Z,9.90
2022-12-25T00:15:30.841Z,9.90
2022-12-25T00:17:57.461Z,9.90
2022-12-25T00:20:24.078Z,9.90
2022-12-25T00:22:50.660Z,9.90
2022-12-25T00:25:17.385Z,9.90
2022-12-25T00:27:43.992Z,9.90
2022-12-25T00:30:10.972Z,9.90
2022-12-25T00:32:37.804Z,9.90
2022-12-25T00:35:05.534Z,9.90
2022-12-25T00:37:32.155Z,9.90
2022-12-25T00:39:59.171Z,9.90
2022-12-25T00:42:27.026Z,9.90
2022-12-25T00:44:53.663Z,9.90
2022-12-25T00:47:20.382Z,9.90
2022-12-25T00:49:47.075Z,9.90
2022-12-25T00:52:13.787Z,9.90
2022-12-25T00:54:40.401Z,9.80
2022-12-25T00:57:06.975Z,9.90
2022-12-25T00:59:34.518Z,9.90
2022-12-25T01:02:22.058Z,9.90
2022-12-25T01:04:50.239Z,9.90
2022-12-25T01:07:17.552Z,9.90
2022-12-25T01:10:03.822Z,9.90
2022-12-25T01:12:32.242Z,9.90
2022-12-25T01:14:59.002Z,9.90
2022-12-25T01:17:25.722Z,9.90
2022-12-25T01:19:52.319Z,9.90
2022-12-25T01:22:19.082Z,9.90
2022-12-25T01:24:45.921Z,9.90
2022-12-25T01:27:12.749Z,9.90
2022-12-25T01:29:39.436Z,9.90
2022-12-25T01:32:06.779Z,9.90
2022-12-25T01:34:33.793Z,9.90
2022-12-25T01:37:00.463Z,9.90
2022-12-25T01:39:27.393Z,9.90
2022-12-25T01:41:54.085Z,9.90
2022-12-25T01:44:35.745Z,9.80
2022-12-25T01:47:06.740Z,9.80
2022-12-25T01:49:39.084Z,9.80
2022-12-25T01:52:10.755Z,9.80
2022-12-25T01:54:43.453Z,9.80
2022-12-25T01:57:16.586Z,9.80
2022-12-25T01:59:43.815Z,9.80
2022-12-25T02:02:11.325Z,9.80
2022-12-25T02:04:45.839Z,9.80
2022-12-25T02:07:18.166Z,9.80
2022-12-25T02:09:45.909Z,9.80
2022-12-25T02:12:20.000Z,9.80
2022-12-25T02:14:49.505Z,9.80
2022-12-25T02:17:37.557Z,9.80
2022-12-25T02:20:23.054Z,9.80
2022-12-25T02:23:32.372Z,9.80
2022-12-25T02:26:05.038Z,9.80
2022-12-25T02:28:37.309Z,9.80
2022-12-25T02:31:15.045Z,9.80
2022-12-25T02:34:15.760Z,9.80
2022-12-25T02:37:02.600Z,9.80
2022-12-25T02:40:11.352Z,9.70
2022-12-25T02:43:16.939Z,9.70
2022-12-25T02:46:13.115Z,9.70
2022-12-25T02:49:09.361Z,9.70
2022-12-25T02:51:59.604Z,9.70
2022-12-25T02:54:53.330Z,9.70
2022-12-25T02:57:41.555Z,9.70
2022-12-25T03:00:28.880Z,9.70
2022-12-25T03:03:16.273Z,9.70
2022-12-25T03:06:03.142Z,9.70
2022-12-25T03:08:37.062Z,9.70
2022-12-25T03:11:25.516Z,9.70
2022-12-25T03:13:55.785Z,9.70
2022-12-25T03:16:54.999Z,9.70
2022-12-25T03:19:42.884Z,9.70
2022-12-25T03:22:54.102Z,9.70
2022-12-25T03:25:39.250Z,9.70
2022-12-25T03:28:06.501Z,9.70
2022-12-25T03:31:13.986Z,9.70
2022-12-25T03:34:17.553Z,9.70
2022-12-25T03:37:05.169Z,9.70
2022-12-25T03:39:55.022Z,9.70
2022-12-25T03:42:53.947Z,9.70
2022-12-25T03:45:45.172Z,9.70
2022-12-25T03:48:30.803Z,9.70
2022-12-25T03:51:25.414Z,9.70
2022-12-25T03:54:16.303Z,9.70
2022-12-25T03:57:02.626Z,9.70
2022-12-25T03:59:47.473Z,9.70
2022-12-25T04:02:32.864Z,9.70
2022-12-25T04:05:18.099Z,9.70
2022-12-25T04:08:03.494Z,9.70
2022-12-25T04:10:49.036Z,9.70
2022-12-25T04:13:34.433Z,9.70
2022-12-25T04:16:19.649Z,9.70
2022-12-25T04:19:04.758Z,9.70
2022-12-25T04:21:49.812Z,9.60
2022-12-25T04:24:35.238Z,9.60
2022-12-25T04:27:20.433Z,9.60
2022-12-25T04:30:05.825Z,9.70
2022-12-25T04:32:50.975Z,9.70
2022-12-25T04:35:36.226Z,9.70
2022-12-25T04:38:02.834Z,9.60
2022-12-25T04:40:29.444Z,9.60
2022-12-25T04:42:56.054Z,9.70
2022-12-25T04:45:22.665Z,9.60
2022-12-25T04:47:49.339Z,9.60
2022-12-25T04:50:16.001Z,9.60
2022-12-25T04:52:43.133Z,9.70
2022-12-25T04:55:11.100Z,9.60
2022-12-25T04:57:38.121Z,9.60
2022-12-25T05:00:06.148Z,9.60
2022-12-25T05:02:33.149Z,9.60
2022-12-25T05:04:59.973Z,9.60
2022-12-25T05:07:26.571Z,9.60
2022-12-25T05:09:53.199Z,9.60
2022-12-25T05:12:19.882Z,9.60
2022-12-25T05:14:46.731Z,9.60
2022-12-25T05:17:13.499Z,9.60
2022-12-25T05:19:40.099Z,9.60
2022-12-25T05:22:06.724Z,9.60
2022-12-25T05:24:33.462Z,9.60
2022-12-25T05:27:00.151Z,9.60
2022-12-25T05:29:26.866Z,9.60
2022-12-25T05:31:53.440Z,9.60
2022-12-25T05:34:20.077Z,9.60
2022-12-25T05:36:46.656Z,9.60
2022-12-25T05:39:13.348Z,9.60
2022-12-25T05:41:40.684Z,9.60
2022-12-25T05:44:07.371Z,9.60
2022-12-25T05:46:34.061Z,9.60
2022-12-25T05:49:00.751Z,9.60
2022-12-25T05:51:27.386Z,9.60
2022-12-25T05:53:53.992Z,9.60
2022-12-25T05:56:20.685Z,9.60
2022-12-25T05:58:47.274Z,9.60
2022-12-25T06:01:16.745Z,9.60
2022-12-25T06:03:43.528Z,9.60
2022-12-25T06:06:10.880Z,9.60
2022-12-25T06:08:37.735Z,9.60
2022-12-25T06:11:06.427Z,9.60
2022-12-25T06:13:34.217Z,9.60
2022-12-25T06:16:04.883Z,9.60
2022-12-25T06:18:31.684Z,9.60
2022-12-25T06:20:58.323Z,9.60
2022-12-25T06:23:24.957Z,9.60
2022-12-25T06:25:51.718Z,9.60
2022-12-25T06:28:18.384Z,9.60
2022-12-25T06:30:46.199Z,9.60
2022-12-25T06:33:12.914Z,9.60
2022-12-25T06:35:40.315Z,9.60
2022-12-25T06:38:06.936Z,9.60
2022-12-25T06:40:35.015Z,9.60
2022-12-25T06:43:01.807Z,9.60
2022-12-25T06:45:28.494Z,9.60
2022-12-25T06:47:55.222Z,9.50
2022-12-25T06:50:21.845Z,9.50
2022-12-25T06:52:48.447Z,9.60
2022-12-25T06:55:15.156Z,9.60
2022-12-25T06:57:41.753Z,9.50
2022-12-25T07:00:10.694Z,9.60
2022-12-25T07:02:38.728Z,9.60
2022-12-25T07:05:06.004Z,9.50
2022-12-25T07:07:32.924Z,9.60
2022-12-25T07:09:59.686Z,9.60
2022-12-25T07:12:26.382Z,9.50
2022-12-25T07:14:55.409Z,9.60
2022-12-25T07:17:23.960Z,9.50
2022-12-25T07:19:50.795Z,9.50
2022-12-25T07:22:17.397Z,9.50
2022-12-25T07:24:44.346Z,9.60
2022-12-25T07:27:11.035Z,9.60
2022-12-25T07:29:37.675Z,9.60
2022-12-25T07:32:04.659Z,9.50
2022-12-25T07:34:31.345Z,9.50
2022-12-25T07:36:57.961Z,9.50
2022-12-25T07:39:24.614Z,9.50
2022-12-25T07:41:51.486Z,9.50
2022-12-25T07:44:18.378Z,9.50
2022-12-25T07:46:45.505Z,9.50
2022-12-25T07:49:12.665Z,9.50
2022-12-25T07:51:39.346Z,9.50
2022-12-25T07:54:06.058Z,9.50
2022-12-25T07:56:32.661Z,9.50
2022-12-25T07:58:59.315Z,9.50
2022-12-25T08:01:27.789Z,9.50
2022-12-25T08:03:57.113Z,9.50
2022-12-25T08:06:26.902Z,9.50
2022-12-25T08:08:53.617Z,9.50
2022-12-25T08:11:20.243Z,9.50
2022-12-25T08:13:46.883Z,9.50
2022-12-25T08:16:13.777Z,9.50
2022-12-25T08:18:40.448Z,9.50
2022-12-25T08:21:10.308Z,9.50
2022-12-25T08:23:39.478Z,9.50
2022-12-25T08:26:08.552Z,9.50
2022-12-25T08:28:36.089Z,9.50
2022-12-25T08:31:19.317Z,9.50
2022-12-25T08:33:46.721Z,9.50
2022-12-25T08:36:13.841Z,9.50
2022-12-25T08:38:41.276Z,9.50
2022-12-25T08:41:08.829Z,9.50
2022-12-25T08:43:35.969Z,9.50
2022-12-25T08:46:03.184Z,9.50
2022-12-25T08:48:30.093Z,9.50
2022-12-25T08:50:57.146Z,9.50
2022-12-25T08:53:24.187Z,9.50
2022-12-25T08:55:57.793Z,9.50
2022-12-25T08:58:24.553Z,9.50
2022-12-25T09:00:51.204Z,9.50
2022-12-25T09:03:17.848Z,9.50
2022-12-25T09:05:44.512Z,9.50
2022-12-25T09:08:11.077Z,9.60
2022-12-25T09:10:37.724Z,9.60
2022-12-25T09:13:05.275Z,9.60
2022-12-25T09:15:32.531Z,9.60
2022-12-25T09:17:59.230Z,9.60
2022-12-25T09:20:25.957Z,9.60
2022-12-25T09:22:52.588Z,9.60
2022-12-25T09:25:19.270Z,9.70
2022-12-25T09:27:45.998Z,9.70
2022-12-25T09:30:12.999Z,9.60
2022-12-25T09:32:40.412Z,9.60
2022-12-25T09:35:08.525Z,9.70
2022-12-25T09:37:35.721Z,9.70
2022-12-25T09:40:02.487Z,9.70
2022-12-25T09:42:37.115Z,9.70
2022-12-25T09:45:11.520Z,9.70
2022-12-25T09:47:41.118Z,9.70
2022-12-25T09:50:13.514Z,9.70
2022-12-25T09:52:49.509Z,9.70
2022-12-25T09:55:21.240Z,9.70
2022-12-25T09:58:08.838Z,9.70
2022-12-25T10:00:42.299Z,9.80
2022-12-25T10:03:12.101Z,9.80
2022-12-25T10:05:55.851Z,9.80
2022-12-25T10:08:47.897Z,9.80
2022-12-25T10:11:26.246Z,9.80
2022-12-25T10:14:08.069Z,9.80
2022-12-25T10:16:58.011Z,9.80
2022-12-25T10:19:43.183Z,9.80
2022-12-25T10:22:20.062Z,9.80
2022-12-25T10:24:52.979Z,9.80
2022-12-25T10:27:30.167Z,9.80
2022-12-25T10:29:56.872Z,9.80
2022-12-25T10:32:23.517Z,9.80
2022-12-25T10:34:50.776Z,9.80
2022-12-25T10:37:17.762Z,9.90
2022-12-25T10:39:46.809Z,9.80
2022-12-25T10:42:22.459Z,9.90
2022-12-25T10:45:04.290Z,9.90
2022-12-25T10:47:33.977Z,9.90
2022-12-25T10:50:07.826Z,9.90
2022-12-25T10:52:34.640Z,9.90
2022-12-25T10:55:11.525Z,9.90
2022-12-25T10:57:45.876Z,9.90
2022-12-25T11:00:23.567Z,9.90
2022-12-25T11:02:51.143Z,9.90
2022-12-25T11:05:32.997Z,9.90
2022-12-25T11:08:01.578Z,9.90
2022-12-25T11:10:32.575Z,9.90
2022-12-25T11:13:01.051Z,10.00
2022-12-25T11:16:10.849Z,10.00
2022-12-25T11:18:52.391Z,10.00
2022-12-25T11:21:29.158Z,10.00
2022-12-25T11:24:20.040Z,10.00
2022-12-25T11:26:55.877Z,10.00
2022-12-25T11:29:36.576Z,10.00
2022-12-25T11:32:05.281Z,10.00
2022-12-25T11:34:38.453Z,10.10
2022-12-25T11:37:12.526Z,10.00
2022-12-25T11:39:41.156Z,10.10
2022-12-25T11:42:13.588Z,10.10
2022-12-25T11:44:52.012Z,10.10
2022-12-25T11:47:21.862Z,10.10
2022-12-25T11:50:00.248Z,10.10
2022-12-25T11:52:33.927Z,10.10
2022-12-25T11:55:36.883Z,10.10
2022-12-25T11:58:14.203Z,10.20
2022-12-25T12:00:43.076Z,10.20
2022-12-25T12:03:19.220Z,10.20
2022-12-25T12:05:55.522Z,10.20
2022-12-25T12:08:22.177Z,10.20
2022-12-25T12:11:22.221Z,10.20
2022-12-25T12:13:57.511Z,10.20
2022-12-25T12:16:24.254Z,10.20
2022-12-25T12:18:51.067Z,10.20
2022-12-25T12:21:17.733Z,10.20
2022-12-25T12:24:06.146Z,10.20
2022-12-25T12:26:38.143Z,10.30
2022-12-25T12:29:07.144Z,10.30
2022-12-25T12:31:46.828Z,10.20
2022-12-25T12:34:32.585Z,10.20
2022-12-25T12:37:11.421Z,10.30
2022-12-25T12:39:40.237Z,10.30
2022-12-25T12:42:18.824Z,10.30
2022-12-25T12:44:46.212Z,10.20
2022-12-25T12:47:29.469Z,10.30
2022-12-25T12:50:00.470Z,10.30
2022-12-25T12:52:32.927Z,10.30
2022-12-25T12:55:13.101Z,10.30
2022-12-25T12:57:40.654Z,10.30
2022-12-25T13:00:19.568Z,10.30
2022-12-25T13:03:40.495Z,10.30
2022-12-25T13:06:24.993Z,10.30
2022-12-25T13:09:13.355Z,10.30
2022-12-25T13:11:41.643Z,10.30
2022-12-25T13:14:17.214Z,10.30
2022-12-25T13:16:46.651Z,10.30
2022-12-25T13:19:21.975Z,10.30
2022-12-25T13:22:00.469Z,10.30
2022-12-25T13:24:30.119Z,10.40
2022-12-25T13:26:56.976Z,10.30
2022-12-25T13:29:30.989Z,10.40
2022-12-25T13:31:59.627Z,10.40
2022-12-25T13:34:42.078Z,10.40
2022-12-25T13:37:17.523Z,10.40
2022-12-25T13:40:06.473Z,10.40
2022-12-25T13:42:39.990Z,10.40
2022-12-25T13:45:28.069Z,10.40
2022-12-25T13:47:55.752Z,10.40
2022-12-25T13:50:31.926Z,10.40
2022-12-25T13:53:11.223Z,10.40
2022-12-25T13:55:38.216Z,10.40
2022-12-25T13:58:06.924Z,10.40
2022-12-25T14:00:38.050Z,10.50
2022-12-25T14:03:07.578Z,10.50
2022-12-25T14:05:42.856Z,10.50
2022-12-25T14:08:27.583Z,10.40
2022-12-25T14:10:55.614Z,10.50
2022-12-25T14:13:27.213Z,10.50
2022-12-25T14:15:56.607Z,10.50
2022-12-25T14:18:25.024Z,10.50
2022-12-25T14:21:15.376Z,10.50
2022-12-25T14:23:44.576Z,10.50
2022-12-25T14:26:40.789Z,10.50
2022-12-25T14:29:17.249Z,10.50
2022-12-25T14:31:47.036Z,10.50
2022-12-25T14:34:21.604Z,10.50
2022-12-25T14:36:48.802Z,10.50
2022-12-25T14:39:41.655Z,10.50
2022-12-25T14:42:20.326Z,10.50
2022-12-25T14:45:07.323Z,10.50
2022-12-25T14:47:50.966Z,10.50
2022-12-25T14:50:38.726Z,10.50
2022-12-25T14:53:16.690Z,10.50
2022-12-25T14:55:48.321Z,10.50
2022-12-25T14:58:27.318Z,10.50
2022-12-25T15:00:57.034Z,10.50
2022-12-25T15:03:29.895Z,10.50
2022-12-25T15:06:02.125Z,10.50
2022-12-25T15:08:30.219Z,10.50
2022-12-25T15:11:01.043Z,10.50
2022-12-25T15:13:30.336Z,10.50
2022-12-25T15:16:12.642Z,10.50
2022-12-25T15:18:44.794Z,10.50
2022-12-25T15:21:26.491Z,10.50
2022-12-25T15:23:54.631Z,10.50
2022-12-25T15:26:21.783Z,10.50
2022-12-25T15:28:49.041Z,10.50
2022-12-25T15:31:31.055Z,10.50
2022-12-25T15:34:00.456Z,10.50
2022-12-25T15:36:27.606Z,10.50
2022-12-25T15:38:54.813Z,10.50
2022-12-25T15:41:50.277Z,10.50
2022-12-25T15:44:17.177Z,10.50
2022-12-25T15:46:44.152Z,10.40
2022-12-25T15:49:11.425Z,10.40
2022-12-25T15:51:38.611Z,10.50
2022-12-25T15:54:05.411Z,10.40
2022-12-25T15:56:45.594Z,10.40
2022-12-25T15:59:14.450Z,10.40
2022-12-25T16:01:44.769Z,10.40
2022-12-25T16:04:11.647Z,10.40
2022-12-25T16:06:38.619Z,10.40
2022-12-25T16:09:05.632Z,10.40
2022-12-25T16:11:32.349Z,10.40
2022-12-25T16:13:59.005Z,10.40
2022-12-25T16:16:25.915Z,10.30
2022-12-25T16:18:52.647Z,10.30
2022-12-25T16:21:21.121Z,10.30
2022-12-25T16:23:48.167Z,10.30
2022-12-25T16:26:14.876Z,10.30
2022-12-25T16:28:41.595Z,10.30
2022-12-25T16:31:08.339Z,10.30
2022-12-25T16:33:34.964Z,10.20
2022-12-25T16:36:01.607Z,10.20
2022-12-25T16:38:28.199Z,10.20
2022-12-25T16:40:57.431Z,10.20
2022-12-25T16:43:24.590Z,10.20
2022-12-25T16:45:51.588Z,10.20
2022-12-25T16:48:18.271Z,10.20
2022-12-25T16:50:45.227Z,10.20
2022-12-25T16:53:12.725Z,10.20
2022-12-25T16:55:39.379Z,10.20
2022-12-25T16:58:06.669Z,10.10
2022-12-25T17:00:33.387Z,10.10
2022-12-25T17:03:00.924Z,10.10
2022-12-25T17:05:27.848Z,10.10
2022-12-25T17:07:54.464Z,10.10
2022-12-25T17:10:21.443Z,10.10
2022-12-25T17:12:48.298Z,10.10
2022-12-25T17:15:14.992Z,10.10
2022-12-25T17:17:41.812Z,10.10
2022-12-25T17:20:08.816Z,10.10
2022-12-25T17:22:35.515Z,10.10
2022-12-25T17:25:02.313Z,10.10
2022-12-25T17:27:28.966Z,10.10
2022-12-25T17:29:55.642Z,10.10
2022-12-25T17:32:22.442Z,10.10
2022-12-25T17:34:49.070Z,10.10
2022-12-25T17:37:15.720Z,10.00
2022-12-25T17:39:42.360Z,10.00
2022-12-25T17:42:09.015Z,10.00
2022-12-25T17:44:35.667Z,10.00
2022-12-25T17:47:02.385Z,10.00
2022-12-25T17:49:29.133Z,10.00
2022-12-25T17:51:55.831Z,10.00
2022-12-25T17:54:22.448Z,10.00
2022-12-25T17:56:49.466Z,10.00
2022-12-25T17:59:18.816Z,10.00
2022-12-25T18:01:47.072Z,10.00
2022-12-25T18:04:13.950Z,9.90
2022-12-25T18:06:40.653Z,9.90
2022-12-25T18:09:07.351Z,9.90
2022-12-25T18:11:34.132Z,9.90
2022-12-25T18:14:05.640Z,9.90
2022-12-25T18:16:35.152Z,9.90
2022-12-25T18:19:02.511Z,9.90
2022-12-25T18:21:29.818Z,9.90
2022-12-25T18:23:56.745Z,9.90
2022-12-25T18:26:23.843Z,9.90
2022-12-25T18:28:50.697Z,9.90
2022-12-25T18:31:20.849Z,9.90
2022-12-25T18:33:48.436Z,9.90
2022-12-25T18:36:17.458Z,9.90
2022-12-25T18:38:44.082Z,9.90
2022-12-25T18:41:10.946Z,9.90
2022-12-25T18:43:53.959Z,9.90
2022-12-25T18:46:26.678Z,9.90
2022-12-25T18:48:55.634Z,9.90
2022-12-25T18:51:22.717Z,9.90
2022-12-25T18:53:49.372Z,9.90
2022-12-25T18:56:17.854Z,9.90
2022-12-25T18:58:46.180Z,9.90
2022-12-25T19:01:18.720Z,9.90
2022-12-25T19:03:46.263Z,9.90
2022-12-25T19:06:23.820Z,9.90
2022-12-25T19:08:51.221Z,9.90
2022-12-25T19:11:18.260Z,9.80
2022-12-25T19:13:45.683Z,9.80
2022-12-25T19:16:12.738Z,9.90
2022-12-25T19:18:43.060Z,9.80
2022-12-25T19:21:10.166Z,9.80
2022-12-25T19:23:38.066Z,9.80
2022-12-25T19:26:05.991Z,9.80
2022-12-25T19:28:32.709Z,9.80
2022-12-25T19:31:00.580Z,9.80
2022-12-25T19:33:27.780Z,9.80
2022-12-25T19:35:58.637Z,9.80
2022-12-25T19:38:25.250Z,9.80
2022-12-25T19:41:01.166Z,9.80
2022-12-25T19:43:33.066Z,9.80
2022-12-25T19:46:00.317Z,9.80
2022-12-25T19:48:27.673Z,9.80
2022-12-25T19:50:54.601Z,9.80
2022-12-25T19:53:23.768Z,9.80
2022-12-25T19:55:55.554Z,9.80
2022-12-25T19:58:23.679Z,9.80
2022-12-25T20:01:06.053Z,9.80
2022-12-25T20:03:38.824Z,9.80
2022-12-25T20:06:11.203Z,9.70
2022-12-25T20:08:37.815Z,9.70
2022-12-25T20:11:04.438Z,9.70
2022-12-25T20:13:31.118Z,9.70
2022-12-25T20:16:01.528Z,9.70
2022-12-25T20:18:29.074Z,9.70
2022-12-25T20:21:07.534Z,9.70
2022-12-25T20:23:34.171Z,9.70
2022-12-25T20:26:04.297Z,9.70
2022-12-25T20:28:32.620Z,9.70
2022-12-25T20:30:59.329Z,9.70
2022-12-25T20:33:25.915Z,9.70
2022-12-25T20:35:52.680Z,9.70
2022-12-25T20:38:19.288Z,9.70
2022-12-25T20:41:24.324Z,9.70
2022-12-25T20:43:32.932Z,9.70
2022-12-25T20:45:59.791Z,9.70
2022-12-25T20:48:26.524Z,9.70
2022-12-25T20:50:53.212Z,9.70
2022-12-25T20:53:20.485Z,9.70
2022-12-25T20:55:49.573Z,9.70
2022-12-25T20:58:17.330Z,9.70
2022-12-25T21:00:45.221Z,9.70
2022-12-25T21:03:12.221Z,9.70
2022-12-25T21:05:49.805Z,9.70
2022-12-25T21:08:22.411Z,9.70
2022-12-25T21:10:52.331Z,9.70
2022-12-25T21:13:20.749Z,9.70
2022-12-25T21:15:48.959Z,9.70
2022-12-25T21:18:20.905Z,9.70
2022-12-25T21:20:51.466Z,9.70
2022-12-25T21:23:18.982Z,9.70
2022-12-25T21:25:47.035Z,9.70
2022-12-25T21:28:14.015Z,9.70
2022-12-25T21:30:40.820Z,9.70
2022-12-25T21:33:26.265Z,9.70
2022-12-25T21:35:52.930Z,9.60
2022-12-25T21:38:19.546Z,9.60
2022-12-25T21:40:46.150Z,9.60
2022-12-25T21:43:14.398Z,9.60
2022-12-25T21:45:41.141Z,9.60
2022-12-25T21:48:08.089Z,9.60
2022-12-25T21:50:53.587Z,9.60
2022-12-25T21:53:20.831Z,9.60
2022-12-25T21:56:01.381Z,9.60
2022-12-25T21:58:28.479Z,9.60
2022-12-25T22:00:55.455Z,9.60
2022-12-25T22:03:23.709Z,9.60
2022-12-25T22:06:09.237Z,9.60
2022-12-25T22:08:35.885Z,9.60
2022-12-25T22:11:04.070Z,9.60
2022-12-25T22:13:49.607Z,9.60
2022-12-25T22:16:34.827Z,9.60
2022-12-25T22:19:20.422Z,9.60
2022-12-25T22:21:47.000Z,9.60
2022-12-25T22:24:13.632Z,9.60
2022-12-25T22:26:40.259Z,9.60
2022-12-25T22:29:07.047Z,9.60
2022-12-25T22:31:33.718Z,9.60
2022-12-25T22:34:00.422Z,9.60
2022-12-25T22:36:27.054Z,9.60
2022-12-25T22:38:53.731Z,9.60
2022-12-25T22:41:20.339Z,9.60
2022-12-25T22:44:17.167Z,9.60
2022-12-25T22:46:33.553Z,9.60
2022-12-25T22:49:00.212Z,9.60
2022-12-25T22:51:26.784Z,9.60
2022-12-25T22:53:54.813Z,9.60
2022-12-25T22:56:24.143Z,9.60
2022-12-25T22:58:50.769Z,9.60
2022-12-25T23:01:17.409Z,9.50
2022-12-25T23:03:44.107Z,9.50
2022-12-25T23:06:10.971Z,9.50
2022-12-25T23:08:37.607Z,9.50
2022-12-25T23:11:05.197Z,9.50
2022-12-25T23:13:50.487Z,9.60
2022-12-25T23:16:17.770Z,9.60
2022-12-25T23:19:04.323Z,9.50
2022-12-25T23:21:49.791Z,9.50
2022-12-25T23:24:35.177Z,9.50
2022-12-25T23:27:02.031Z,9.60
2022-12-25T23:29:37.569Z,9.50
2022-12-25T23:32:13.220Z,9.50
2022-12-25T23:34:43.047Z,9.60
2022-12-25T23:37:10.353Z,9.60
2022-12-25T23:39:37.571Z,9.60
2022-12-25T23:42:04.441Z,9.60
2022-12-25T23:44:31.115Z,9.60
2022-12-25T23:46:58.207Z,9.60
2022-12-25T23:49:25.620Z,9.60
2022-12-25T23:51:52.839Z,9.50
2022-12-25T23:54:22.905Z,9.60
2022-12-25T23:56:49.753Z,9.60
2022-12-25T23:59:16.823Z,9.50
